Time;durP1;ratioP1;P1;durP2;ratioP2;P2;SDS_P1;SDS_P2;PMS_P1;PMS_P2;Temp;Humidity;BMP_temperature;BMP_pressure;BME280_temperature;BME280_humidity;BME280_pressure;Samples;Min_cycle;Max_cycle;Signal;HPM_P1;HPM_P2
2024/01/13 00:02:02;;;;;;;109.03;37.97;;;;;;;0.14;100.00;102583.53;5023819;28;20554;-75
2024/01/13 00:04:27;;;;;;;99.32;37.13;;;;;;;0.13;100.00;102581.88;5012831;28;20033;-75
2024/01/13 00:06:53;;;;;;;88.78;34.65;;;;;;;0.04;100.00;102582.13;5006936;28;20072;-74
2024/01/13 00:09:18;;;;;;;112.38;38.72;;;;;;;0.07;100.00;102576.94;5009617;28;20042;-74
2024/01/13 00:11:44;;;;;;;101.85;40.08;;;;;;;0.09;100.00;102571.78;5027857;28;20033;-74
2024/01/13 00:14:09;;;;;;;114.05;39.17;;;;;;;0.05;100.00;102580.41;5007820;28;20033;-74
2024/01/13 00:16:35;;;;;;;90.65;34.55;;;;;;;0.05;100.00;102567.66;5026060;28;20048;-75
2024/01/13 00:19:00;;;;;;;119.22;38.55;;;;;;;0.18;100.00;102562.13;5026069;28;20087;-74
2024/01/13 00:21:26;;;;;;;99.55;36.97;;;;;;;0.13;100.00;102560.59;5009612;28;20029;-74
2024/01/13 00:23:51;;;;;;;95.25;36.10;;;;;;;0.09;100.00;102559.84;5012453;28;20029;-74
2024/01/13 00:26:17;;;;;;;97.40;36.92;;;;;;;0.15;100.00;102552.03;5006455;28;20393;-74
2024/01/13 00:28:42;;;;;;;93.93;37.40;;;;;;;0.08;100.00;102548.00;5022072;28;20033;-74
2024/01/13 00:31:07;;;;;;;93.70;35.53;;;;;;;0.08;100.00;102553.09;5023444;28;20566;-74
2024/01/13 00:33:33;;;;;;;104.82;36.70;;;;;;;0.07;100.00;102551.41;5011925;28;20029;-75
2024/01/13 00:35:59;;;;;;;87.40;33.42;;;;;;;0.02;100.00;102542.22;5021101;28;20029;-74
2024/01/13 00:38:24;;;;;;;92.35;34.33;;;;;;;0.01;100.00;102543.97;5025378;28;20087;-74
2024/01/13 00:40:49;;;;;;;102.57;37.30;;;;;;;0.05;100.00;102530.22;5006096;28;20075;-75
2024/01/13 00:43:15;;;;;;;94.07;34.15;;;;;;;0.06;100.00;102526.81;5009538;28;20037;-74
2024/01/13 00:45:41;;;;;;;88.85;34.55;;;;;;;0.07;100.00;102532.75;5015438;28;20050;-74
2024/01/13 00:48:06;;;;;;;89.80;33.55;;;;;;;0.15;100.00;102526.53;5007070;28;20044;-73
2024/01/13 00:50:33;;;;;;;106.38;38.00;;;;;;;0.08;100.00;102514.00;5024743;28;20042;-74
2024/01/13 00:52:58;;;;;;;101.95;35.50;;;;;;;0.06;100.00;102515.75;5006058;28;20062;-74
2024/01/13 00:55:24;;;;;;;92.40;34.88;;;;;;;0.08;100.00;102519.13;5015013;28;20508;-74
2024/01/13 00:57:49;;;;;;;94.95;34.75;;;;;;;0.15;100.00;102529.09;5018630;28;20033;-74
2024/01/13 01:00:15;;;;;;;105.43;37.40;;;;;;;0.20;100.00;102523.84;5022652;28;20028;-74
2024/01/13 01:02:40;;;;;;;104.70;37.05;;;;;;;0.17;100.00;102518.81;5005935;28;20052;-74
2024/01/13 01:05:06;;;;;;;99.10;34.88;;;;;;;0.15;100.00;102510.38;5009776;28;20028;-74
2024/01/13 01:07:32;;;;;;;96.78;35.55;;;;;;;0.18;100.00;102511.13;5022602;28;20439;-74
2024/01/13 01:09:57;;;;;;;99.30;36.50;;;;;;;0.15;100.00;102515.47;5005738;28;20065;-74
2024/01/13 01:12:23;;;;;;;102.35;34.67;;;;;;;0.16;100.00;102520.53;5009927;28;20086;-74
2024/01/13 01:14:49;;;;;;;97.75;34.90;;;;;;;0.09;100.00;102508.84;5023277;28;20033;-74
2024/01/13 01:17:14;;;;;;;99.80;36.75;;;;;;;0.13;100.00;102507.88;5003372;28;20029;-74
2024/01/13 01:19:39;;;;;;;103.22;36.33;;;;;;;0.18;100.00;102510.28;5004438;28;20033;-74
2024/01/13 01:22:05;;;;;;;105.70;36.95;;;;;;;0.25;100.00;102506.66;5017581;28;20041;-73
2024/01/13 01:24:31;;;;;;;89.43;35.20;;;;;;;0.22;100.00;102505.94;5004289;28;20042;-74
2024/01/13 01:26:57;;;;;;;93.18;34.80;;;;;;;0.15;100.00;102505.25;5023746;28;20049;-74
2024/01/13 01:29:22;;;;;;;101.90;35.83;;;;;;;0.08;100.00;102503.81;5019346;28;20030;-74
2024/01/13 01:31:47;;;;;;;101.40;37.47;;;;;;;0.16;100.00;102507.78;5014090;28;20045;-74
2024/01/13 01:34:13;;;;;;;91.43;35.95;;;;;;;0.26;100.00;102507.50;5024428;28;20053;-74
2024/01/13 01:36:38;;;;;;;97.82;34.53;;;;;;;0.30;100.00;102502.25;5006321;28;20037;-74
2024/01/13 01:39:04;;;;;;;95.65;35.97;;;;;;;0.21;100.00;102499.13;5022450;28;20391;-74
2024/01/13 01:41:30;;;;;;;89.63;35.72;;;;;;;0.24;100.00;102501.59;5017105;28;20060;-74
2024/01/13 01:43:56;;;;;;;96.30;35.35;;;;;;;0.22;100.00;102493.16;5005891;28;20037;-74
2024/01/13 01:46:23;;;;;;;95.60;35.95;;;;;;;0.17;100.00;102488.19;5021853;28;20043;-74
2024/01/13 01:48:56;;;;;;;111.32;33.72;;;;;;;0.13;100.00;102482.38;5002085;28;20033;-74
2024/01/13 01:51:22;;;;;;;92.97;34.78;;;;;;;0.10;100.00;102482.47;4998023;28;20045;-75
2024/01/13 01:53:49;;;;;;;87.40;34.40;;;;;;;0.08;100.00;102486.78;5019174;28;20037;-74
2024/01/13 01:56:18;;;;;;;106.07;34.72;;;;;;;0.18;100.00;102489.88;5002044;28;20030;-74
2024/01/13 01:58:46;;;;;;;92.03;34.80;;;;;;;0.12;100.00;102487.53;5021915;28;20018;-74
2024/01/13 02:01:13;;;;;;;103.43;34.25;;;;;;;0.11;100.00;102486.66;5018670;28;20096;-74
2024/01/13 02:03:39;;;;;;;115.45;34.72;;;;;;;0.19;100.00;102484.72;5021195;28;20040;-74
2024/01/13 02:06:05;;;;;;;85.85;32.97;;;;;;;0.15;100.00;102482.31;5020569;28;20534;-74
2024/01/13 02:08:31;;;;;;;89.95;33.58;;;;;;;0.13;100.00;102484.06;5005574;28;20399;-74
2024/01/13 02:10:56;;;;;;;86.70;33.00;;;;;;;0.08;100.00;102474.03;5005813;28;20035;-74
2024/01/13 02:13:22;;;;;;;97.38;33.25;;;;;;;0.06;100.00;102469.81;5023161;28;20416;-74
2024/01/13 02:15:47;;;;;;;104.60;36.35;;;;;;;0.12;100.00;102478.13;5021317;28;20447;-74
2024/01/13 02:18:13;;;;;;;99.15;34.67;;;;;;;0.08;100.00;102468.09;5009780;28;20041;-74
2024/01/13 02:20:38;;;;;;;84.13;31.17;;;;;;;0.06;100.00;102469.81;5021579;28;20050;-74
2024/01/13 02:23:03;;;;;;;90.95;33.30;;;;;;;0.09;100.00;102462.09;5019094;28;20045;-74
2024/01/13 02:25:29;;;;;;;89.30;31.55;;;;;;;0.16;100.00;102466.13;5007796;28;20040;-74
2024/01/13 02:27:54;;;;;;;98.55;32.72;;;;;;;0.12;100.00;102467.94;5022575;28;20033;-74
2024/01/13 02:30:20;;;;;;;81.68;32.28;;;;;;;0.12;100.00;102467.09;5020188;28;20058;-74
2024/01/13 02:32:45;;;;;;;84.35;32.42;;;;;;;0.13;100.00;102469.63;5017307;28;20089;-74
2024/01/13 02:35:11;;;;;;;80.43;29.90;;;;;;;0.09;100.00;102455.25;5019190;28;20033;-74
2024/01/13 02:37:36;;;;;;;78.97;30.15;;;;;;;0.09;100.00;102462.91;5007919;28;20033;-74
2024/01/13 02:40:02;;;;;;;87.38;32.63;;;;;;;0.09;100.00;102450.16;5018009;28;20463;-74
2024/01/13 02:42:28;;;;;;;88.70;34.22;;;;;;;0.12;100.00;102447.53;5001807;28;20076;-74
2024/01/13 02:44:53;;;;;;;92.40;31.77;;;;;;;0.12;100.00;102444.97;5020308;28;20033;-74
2024/01/13 02:47:28;;;;;;;96.65;33.67;;;;;;;0.12;100.00;102449.25;5007771;28;20038;-74
2024/01/13 02:49:53;;;;;;;97.00;33.72;;;;;;;0.09;100.00;102446.78;5023183;28;20025;-74
2024/01/13 02:52:19;;;;;;;92.68;36.80;;;;;;;0.27;100.00;102446.22;5009832;28;20147;-74
2024/01/13 02:54:44;;;;;;;90.13;34.42;;;;;;;0.30;100.00;102441.03;5017019;28;20056;-74
2024/01/13 02:57:10;;;;;;;87.22;34.20;;;;;;;0.24;100.00;102437.81;5018596;28;20034;-74
2024/01/13 02:59:35;;;;;;;95.03;35.70;;;;;;;0.38;100.00;102443.31;5011123;28;20041;-74
2024/01/13 03:02:01;;;;;;;92.07;34.78;;;;;;;0.26;100.00;102424.13;5022736;28;20041;-74
2024/01/13 03:04:26;;;;;;;91.20;34.40;;;;;;;0.22;100.00;102417.44;5018507;28;20034;-74
2024/01/13 03:06:51;;;;;;;94.20;34.97;;;;;;;0.31;100.00;102417.16;5023849;28;20045;-74
2024/01/13 03:09:17;;;;;;;92.75;33.95;;;;;;;0.19;100.00;102420.13;5013070;28;20025;-74
2024/01/13 03:11:42;;;;;;;91.82;34.60;;;;;;;0.18;100.00;102408.22;5025667;28;20614;-74
2024/01/13 03:14:08;;;;;;;91.20;34.38;;;;;;;0.16;100.00;102408.28;5011458;28;21712;-74
2024/01/13 03:16:33;;;;;;;96.20;35.10;;;;;;;0.20;100.00;102409.00;5013538;28;20036;-74
2024/01/13 03:18:59;;;;;;;86.53;31.83;;;;;;;0.15;100.00;102393.00;5013245;28;20420;-74
2024/01/13 03:21:24;;;;;;;94.10;35.55;;;;;;;0.13;100.00;102393.09;5024388;28;20740;-75
2024/01/13 03:23:50;;;;;;;88.65;32.80;;;;;;;0.13;100.00;102385.44;5026111;28;20034;-75
2024/01/13 03:26:15;;;;;;;84.78;33.25;;;;;;;0.16;100.00;102387.03;5027974;28;20048;-74
2024/01/13 03:28:41;;;;;;;91.97;34.17;;;;;;;0.18;100.00;102382.72;5014191;28;20040;-74
2024/01/13 03:31:06;;;;;;;89.47;34.25;;;;;;;0.17;100.00;102387.00;5026806;28;20095;-74
2024/01/13 03:33:32;;;;;;;76.07;30.35;;;;;;;0.16;100.00;102370.00;5026838;28;20033;-74
2024/01/13 03:35:57;;;;;;;88.68;31.23;;;;;;;0.19;100.00;102369.91;5006318;28;20042;-74
2024/01/13 03:38:25;;;;;;;84.93;32.00;;;;;;;0.18;100.00;102368.22;5023248;28;20530;-74
2024/01/13 03:40:50;;;;;;;81.03;30.58;;;;;;;0.14;100.00;102369.22;5026895;28;20057;-74
2024/01/13 03:43:15;;;;;;;71.28;28.85;;;;;;;0.26;100.00;102367.97;5026892;28;20064;-74
2024/01/13 03:45:41;;;;;;;67.40;26.90;;;;;;;0.21;100.00;102369.00;5005473;28;20068;-74
2024/01/13 03:48:06;;;;;;;75.10;28.35;;;;;;;0.17;100.00;102355.50;5027231;28;20109;-74
2024/01/13 03:50:32;;;;;;;68.90;27.30;;;;;;;0.18;100.00;102355.47;5009709;28;20052;-74
2024/01/13 03:52:58;;;;;;;72.35;28.25;;;;;;;0.23;100.00;102355.34;5030451;28;20041;-74
2024/01/13 03:55:23;;;;;;;77.70;28.42;;;;;;;0.21;100.00;102356.25;5016052;28;20038;-75
2024/01/13 03:57:49;;;;;;;65.88;25.02;;;;;;;0.20;100.00;102350.31;5028181;28;20025;-74
2024/01/13 04:00:14;;;;;;;67.38;25.77;;;;;;;0.29;100.00;102341.53;5011393;28;20029;-74
2024/01/13 04:02:40;;;;;;;60.78;25.08;;;;;;;0.26;100.00;102344.19;5012086;28;20034;-75
2024/01/13 04:05:05;;;;;;;64.10;24.13;;;;;;;0.22;100.00;102330.69;5009672;28;20034;-74
2024/01/13 04:07:31;;;;;;;60.45;24.88;;;;;;;0.24;100.00;102331.47;5026045;28;20029;-75
2024/01/13 04:09:57;;;;;;;60.10;23.65;;;;;;;0.21;100.00;102334.13;5024754;28;20030;-74
2024/01/13 04:12:22;;;;;;;54.70;24.08;;;;;;;0.30;100.00;102336.38;5026600;28;20033;-75
2024/01/13 04:14:47;;;;;;;62.40;24.15;;;;;;;0.29;100.00;102331.34;4996103;28;20049;-74
2024/01/13 04:17:13;;;;;;;56.90;23.67;;;;;;;0.42;100.00;102332.56;5024284;28;20034;-74
2024/01/13 04:19:38;;;;;;;69.47;25.08;;;;;;;0.39;100.00;102327.56;5025290;28;20057;-74
2024/01/13 04:22:04;;;;;;;60.72;24.08;;;;;;;0.39;100.00;102315.63;5009991;28;20033;-74
2024/01/13 04:24:29;;;;;;;59.45;21.83;;;;;;;0.39;100.00;102318.19;5027010;28;20038;-75
2024/01/13 04:26:55;;;;;;;52.65;21.27;;;;;;;0.37;100.00;102314.84;5013906;28;20030;-74
2024/01/13 04:29:20;;;;;;;49.63;22.00;;;;;;;0.34;100.00;102309.03;5010961;28;21127;-75
2024/01/13 04:31:46;;;;;;;52.75;21.63;;;;;;;0.31;100.00;102315.06;5011462;28;20392;-75
2024/01/13 04:34:11;;;;;;;48.20;20.67;;;;;;;0.38;100.00;102305.50;5011407;28;20060;-74
2024/01/13 04:36:37;;;;;;;55.33;21.33;;;;;;;0.36;100.00;102297.88;5013458;28;20069;-74
2024/01/13 04:39:03;;;;;;;52.50;20.65;;;;;;;0.38;100.00;102301.22;5019634;28;20026;-74
2024/01/13 04:41:28;;;;;;;50.97;19.38;;;;;;;0.36;100.00;102305.53;5026658;28;20052;-74
2024/01/13 04:43:54;;;;;;;50.05;20.10;;;;;;;0.36;100.00;102300.44;5022005;28;20030;-75
2024/01/13 04:46:19;;;;;;;53.83;19.52;;;;;;;0.39;100.00;102314.81;5025715;28;20443;-75
2024/01/13 04:48:45;;;;;;;47.35;19.52;;;;;;;0.38;100.00;102308.88;5025974;28;20754;-74
2024/01/13 04:51:11;;;;;;;50.65;18.83;;;;;;;0.34;100.00;102302.22;5022993;28;20044;-74
2024/01/13 04:53:36;;;;;;;48.17;18.90;;;;;;;0.35;100.00;102297.94;5026286;28;20030;-75
2024/01/13 04:56:02;;;;;;;51.05;20.77;;;;;;;0.39;100.00;102291.84;5007518;28;20037;-74
2024/01/13 04:58:28;;;;;;;51.53;19.85;;;;;;;0.41;100.00;102295.16;5028194;28;20029;-74
2024/01/13 05:00:53;;;;;;;47.08;19.42;;;;;;;0.41;100.00;102294.34;5007574;28;20045;-74
2024/01/13 05:03:19;;;;;;;54.35;21.55;;;;;;;0.42;100.00;102294.28;5025787;28;20040;-75
2024/01/13 05:05:44;;;;;;;49.28;20.27;;;;;;;0.40;100.00;102308.81;5024502;28;20034;-74
2024/01/13 05:08:09;;;;;;;49.42;20.52;;;;;;;0.38;100.00;102300.41;4995247;28;20408;-74
2024/01/13 05:10:35;;;;;;;43.70;19.80;;;;;;;0.38;100.00;102287.63;5023486;28;20069;-74
2024/01/13 05:13:00;;;;;;;52.25;21.77;;;;;;;0.43;100.00;102293.38;5010713;28;20033;-74
2024/01/13 05:15:26;;;;;;;48.65;21.10;;;;;;;0.46;100.00;102290.75;5009177;28;20044;-74
2024/01/13 05:17:51;;;;;;;57.72;22.02;;;;;;;0.42;100.00;102294.28;5027264;28;20032;-74
2024/01/13 05:20:17;;;;;;;52.33;22.27;;;;;;;0.46;100.00;102295.03;5006622;28;20057;-74
2024/01/13 05:22:42;;;;;;;51.35;22.52;;;;;;;0.54;100.00;102288.72;5012377;28;20029;-74
2024/01/13 05:25:08;;;;;;;57.40;23.30;;;;;;;0.62;100.00;102291.00;5010283;28;20045;-75
2024/01/13 05:27:33;;;;;;;55.15;23.20;;;;;;;0.73;100.00;102290.63;5023805;28;20028;-74
2024/01/13 05:29:59;;;;;;;61.00;23.33;;;;;;;0.58;100.00;102292.88;5011134;28;20539;-74
2024/01/13 05:32:24;;;;;;;56.33;23.80;;;;;;;0.58;100.00;102302.22;5010934;28;20084;-74
2024/01/13 05:34:50;;;;;;;53.95;22.02;;;;;;;0.51;100.00;102295.66;5025675;28;20026;-74
2024/01/13 05:37:15;;;;;;;48.55;22.63;;;;;;;0.52;100.00;102284.59;5026295;28;20036;-74
2024/01/13 05:39:41;;;;;;;56.80;24.40;;;;;;;0.56;100.00;102289.50;5011679;28;20083;-75
2024/01/13 05:42:08;;;;;;;58.83;24.67;;;;;;;0.66;100.00;102287.50;5026672;28;20100;-75
2024/01/13 05:44:34;;;;;;;55.50;23.83;;;;;;;0.59;100.00;102288.59;5025977;28;20040;-74
2024/01/13 05:46:59;;;;;;;58.25;23.25;;;;;;;0.53;100.00;102284.53;4994187;28;20042;-74
2024/01/13 05:49:25;;;;;;;57.45;23.10;;;;;;;0.48;100.00;102285.59;5022522;28;20088;-75
2024/01/13 05:51:50;;;;;;;52.70;21.77;;;;;;;0.54;100.00;102287.91;5024986;28;20037;-75
2024/01/13 05:54:16;;;;;;;52.72;23.52;;;;;;;0.62;100.00;102277.41;5025473;28;20679;-74
2024/01/13 05:56:41;;;;;;;52.55;22.95;;;;;;;0.61;100.00;102279.16;5021951;28;20411;-74
2024/01/13 05:59:07;;;;;;;47.38;23.63;;;;;;;0.61;100.00;102266.38;5022338;28;20024;-74
2024/01/13 06:01:32;;;;;;;49.85;23.63;;;;;;;0.56;100.00;102269.09;5026671;28;20043;-74
2024/01/13 06:03:58;;;;;;;53.30;22.85;;;;;;;0.55;100.00;102279.38;5019276;28;20030;-74
2024/01/13 06:06:24;;;;;;;52.63;22.77;;;;;;;0.58;100.00;102267.34;5020338;28;20045;-73
2024/01/13 06:08:49;;;;;;;49.15;22.92;;;;;;;0.57;100.00;102262.28;5019098;28;20030;-75
2024/01/13 06:11:15;;;;;;;56.15;24.58;;;;;;;0.54;100.00;102260.66;5009228;28;20373;-74
2024/01/13 06:13:41;;;;;;;50.53;21.42;;;;;;;0.53;100.00;102263.28;5010433;28;20055;-74
2024/01/13 06:16:07;;;;;;;58.80;23.80;;;;;;;0.56;100.00;102246.09;5024622;28;20508;-74
2024/01/13 06:18:33;;;;;;;56.65;23.65;;;;;;;0.53;100.00;102245.41;4994430;28;20033;-74
2024/01/13 06:21:00;;;;;;;47.50;21.77;;;;;;;0.57;100.00;102244.41;5023859;28;20045;-74
2024/01/13 06:23:26;;;;;;;62.17;25.80;;;;;;;0.69;100.00;102254.16;5025006;28;20025;-74
2024/01/13 06:25:51;;;;;;;45.88;21.35;;;;;;;0.72;100.00;102254.06;5022878;28;20044;-74
2024/01/13 06:28:16;;;;;;;52.50;22.40;;;;;;;0.64;100.00;102263.72;5026335;28;20048;-74
2024/01/13 06:30:42;;;;;;;53.30;23.80;;;;;;;0.71;100.00;102247.28;5018444;28;20045;-74
2024/01/13 06:33:07;;;;;;;53.55;21.77;;;;;;;0.74;100.00;102241.25;5008865;28;20029;-74
2024/01/13 06:35:33;;;;;;;47.70;23.25;;;;;;;0.72;100.00;102253.25;5013391;28;20037;-75
2024/01/13 06:37:58;;;;;;;54.78;26.10;;;;;;;0.74;100.00;102259.13;5010717;28;20025;-75
2024/01/13 06:40:24;;;;;;;59.55;27.70;;;;;;;0.64;100.00;102270.53;5015038;28;20033;-74
2024/01/13 06:42:49;;;;;;;64.07;29.73;;;;;;;0.64;100.00;102262.88;4997639;28;20399;-74
2024/01/13 06:45:15;;;;;;;68.78;29.90;;;;;;;0.59;100.00;102252.84;5028647;28;20440;-74
2024/01/13 06:47:40;;;;;;;61.65;27.80;;;;;;;0.57;100.00;102257.19;5029140;28;20074;-74
2024/01/13 06:50:07;;;;;;;56.78;26.52;;;;;;;0.51;100.00;102255.69;5027117;28;20041;-74
2024/01/13 06:52:32;;;;;;;61.08;26.75;;;;;;;0.57;100.00;102240.13;5013182;28;20040;-75
2024/01/13 06:54:58;;;;;;;61.17;25.75;;;;;;;0.51;100.00;102230.16;5027666;28;20052;-74
2024/01/13 06:57:23;;;;;;;56.95;25.38;;;;;;;0.54;100.00;102219.81;5018091;28;20033;-74
2024/01/13 06:59:48;;;;;;;54.42;25.20;;;;;;;0.57;100.00;102221.44;5015785;28;20087;-74
2024/01/13 07:02:14;;;;;;;65.25;29.15;;;;;;;0.53;100.00;102207.13;5012405;28;20045;-74
2024/01/13 07:04:40;;;;;;;58.70;27.65;;;;;;;0.58;100.00;102202.66;5033917;28;20435;-74
2024/01/13 07:07:06;;;;;;;52.55;26.95;;;;;;;0.50;100.00;102191.91;5029884;28;20453;-74
2024/01/13 07:09:32;;;;;;;60.72;28.05;;;;;;;0.49;100.00;102185.13;5024448;28;20113;-74
2024/01/13 07:11:57;;;;;;;59.92;28.00;;;;;;;0.43;100.00;102193.84;5013361;28;20404;-74
2024/01/13 07:14:23;;;;;;;77.75;35.08;;;;;;;0.45;100.00;102194.63;5029816;28;20060;-74
2024/01/13 07:16:48;;;;;;;71.72;33.50;;;;;;;0.42;100.00;102193.94;5014295;28;20045;-74
2024/01/13 07:19:15;;;;;;;60.42;30.88;;;;;;;0.39;100.00;102194.84;5029957;28;20029;-74
2024/01/13 07:21:41;;;;;;;65.20;30.90;;;;;;;0.40;100.00;102188.88;4998618;28;20044;-74
2024/01/13 07:24:11;;;;;;;76.43;34.83;;;;;;;0.43;100.00;102186.19;5014174;28;20141;-74
2024/01/13 07:26:41;;;;;;;69.40;32.95;;;;;;;0.50;100.00;102202.13;5028368;28;20037;-74
2024/01/13 07:29:07;;;;;;;62.08;27.40;;;;;;;0.47;100.00;102199.66;5027643;28;20041;-74
2024/01/13 07:31:33;;;;;;;59.28;26.77;;;;;;;0.59;100.00;102194.13;5033239;28;20030;-74
2024/01/13 07:33:58;;;;;;;60.17;27.00;;;;;;;0.53;100.00;102195.19;5031410;28;20511;-75
2024/01/13 07:36:24;;;;;;;60.85;28.42;;;;;;;0.63;100.00;102193.13;5031581;28;20033;-75
2024/01/13 07:38:49;;;;;;;65.03;30.27;;;;;;;0.66;100.00;102184.50;5029836;28;20021;-76
2024/01/13 07:41:14;;;;;;;58.97;26.30;;;;;;;0.63;100.00;102179.53;5031588;28;20404;-73
2024/01/13 07:43:40;;;;;;;64.18;27.52;;;;;;;0.54;100.00;102171.31;5031727;28;20052;-74
2024/01/13 07:46:05;;;;;;;61.88;31.20;;;;;;;0.57;100.00;102155.06;5025038;28;20491;-74
2024/01/13 07:48:31;;;;;;;60.13;27.65;;;;;;;0.54;100.00;102138.13;5031486;28;20087;-73
2024/01/13 07:50:56;;;;;;;55.78;26.52;;;;;;;0.60;100.00;102131.13;5029516;28;20033;-74
2024/01/13 07:53:22;;;;;;;55.15;27.35;;;;;;;0.58;100.00;102134.59;5030685;28;20034;-74
2024/01/13 07:55:47;;;;;;;64.60;28.95;;;;;;;0.67;100.00;102142.78;5025776;28;20060;-74
2024/01/13 07:58:13;;;;;;;53.17;25.38;;;;;;;0.65;100.00;102150.47;5029976;28;20480;-74
2024/01/13 08:00:38;;;;;;;60.28;27.25;;;;;;;0.65;100.00;102145.38;5012904;28;20041;-73
2024/01/13 08:03:06;;;;;;;55.88;27.30;;;;;;;0.69;100.00;102141.81;4996452;28;20069;-73
2024/01/13 08:05:32;;;;;;;62.22;26.65;;;;;;;0.61;100.00;102136.19;5025837;28;20075;-74
2024/01/13 08:07:57;;;;;;;51.33;24.25;;;;;;;0.59;100.00;102125.19;5014081;28;20033;-74
2024/01/13 08:10:23;;;;;;;65.68;30.13;;;;;;;0.65;100.00;102112.19;5012424;28;20060;-73
2024/01/13 08:12:48;;;;;;;67.13;35.92;;;;;;;0.63;100.00;102106.31;5002353;28;20037;-74
2024/01/13 08:15:14;;;;;;;77.28;37.67;;;;;;;0.57;100.00;102106.56;5026967;28;20029;-74
2024/01/13 08:17:39;;;;;;;71.70;33.08;;;;;;;0.61;100.00;102107.28;5028971;28;20029;-74
2024/01/13 08:20:06;;;;;;;75.03;35.47;;;;;;;0.63;100.00;102110.59;5024492;28;20029;-74
2024/01/13 08:22:32;;;;;;;74.07;36.03;;;;;;;0.61;100.00;102102.16;4997859;28;20036;-74
2024/01/13 08:24:57;;;;;;;68.95;32.17;;;;;;;0.68;100.00;102099.31;5026274;28;20029;-74
2024/01/13 08:27:23;;;;;;;61.92;28.08;;;;;;;0.67;100.00;102105.28;5009422;28;20149;-74
2024/01/13 08:29:48;;;;;;;53.72;25.55;;;;;;;0.67;100.00;102110.41;5011873;28;20376;-73
2024/01/13 08:32:14;;;;;;;53.72;23.70;;;;;;;0.71;100.00;102093.25;5027144;28;20053;-73
2024/01/13 08:34:39;;;;;;;50.95;24.65;;;;;;;0.73;100.00;102079.50;5024844;28;20507;-74
2024/01/13 08:37:05;;;;;;;47.42;23.45;;;;;;;0.73;100.00;102076.13;5025329;28;20052;-73
2024/01/13 08:39:32;;;;;;;50.88;24.67;;;;;;;0.81;100.00;102063.91;5016099;28;20033;-73
2024/01/13 08:41:57;;;;;;;49.22;23.40;;;;;;;0.80;100.00;102066.53;5012846;28;20041;-74
2024/01/13 08:44:22;;;;;;;48.40;22.45;;;;;;;0.86;100.00;102071.38;5028915;28;20037;-73
2024/01/13 08:46:48;;;;;;;42.67;22.23;;;;;;;0.85;100.00;102075.66;5021321;28;20416;-74
2024/01/13 08:49:13;;;;;;;48.67;21.55;;;;;;;0.85;100.00;102073.09;5019255;28;20030;-74
2024/01/13 08:51:39;;;;;;;55.03;27.05;;;;;;;0.93;100.00;102081.28;5016100;28;20041;-74
2024/01/13 08:54:05;;;;;;;49.50;25.42;;;;;;;0.86;100.00;102084.97;5021296;28;20033;-74
2024/01/13 08:56:34;;;;;;;50.83;25.15;;;;;;;0.88;100.00;102080.63;5009573;28;20120;-73
2024/01/13 08:58:59;;;;;;;45.40;20.20;;;;;;;0.91;100.00;102077.13;5020944;28;20120;-74
2024/01/13 09:01:25;;;;;;;45.72;20.15;;;;;;;0.95;100.00;102088.88;5007589;28;20120;-73
2024/01/13 09:03:50;;;;;;;48.28;21.50;;;;;;;0.99;100.00;102081.94;5021719;28;20029;-74
2024/01/13 09:06:16;;;;;;;41.08;20.30;;;;;;;1.04;100.00;102080.84;5020156;28;20045;-74
2024/01/13 09:08:41;;;;;;;48.47;25.40;;;;;;;0.97;100.00;102082.81;5030079;28;20036;-74
2024/01/13 09:11:07;;;;;;;42.97;20.70;;;;;;;0.96;100.00;102085.41;5026306;28;20049;-74
2024/01/13 09:13:32;;;;;;;41.10;20.35;;;;;;;1.02;100.00;102085.19;5026327;28;20060;-74
2024/01/13 09:15:58;;;;;;;40.72;20.38;;;;;;;1.17;100.00;102078.63;4998942;28;20044;-74
2024/01/13 09:18:24;;;;;;;36.47;18.38;;;;;;;1.14;100.00;102086.41;5028213;28;20029;-74
2024/01/13 09:20:49;;;;;;;37.22;18.92;;;;;;;1.09;100.00;102096.81;5010510;28;20033;-74
2024/01/13 09:23:14;;;;;;;35.38;17.92;;;;;;;1.13;100.00;102100.06;5011984;28;20037;-74
2024/01/13 09:25:40;;;;;;;37.90;17.55;;;;;;;1.11;100.00;102117.19;5022206;28;20034;-74
2024/01/13 09:28:06;;;;;;;37.08;17.95;;;;;;;1.06;100.00;102106.34;5027963;28;20025;-74
2024/01/13 09:30:32;;;;;;;36.50;17.30;;;;;;;1.07;100.00;102101.16;5020171;28;20407;-74
2024/01/13 09:32:57;;;;;;;36.55;17.92;;;;;;;1.10;100.00;102088.25;5028764;28;20037;-74
2024/01/13 09:35:22;;;;;;;39.85;18.52;;;;;;;1.21;100.00;102092.09;5027718;28;20041;-74
2024/01/13 09:37:48;;;;;;;31.85;17.63;;;;;;;1.32;100.00;102088.19;5021743;28;20045;-74
2024/01/13 09:40:15;;;;;;;32.35;15.50;;;;;;;1.17;100.00;102074.34;5020833;28;20029;-74
2024/01/13 09:43:00;;;;;;;33.42;17.50;;;;;;;1.24;100.00;102066.41;5023554;28;20507;-73
2024/01/13 09:45:27;;;;;;;36.15;18.15;;;;;;;1.26;100.00;102077.38;5006329;28;20037;-73
2024/01/13 09:47:56;;;;;;;43.47;19.83;;;;;;;1.19;100.00;102071.72;4992920;28;20025;-74
2024/01/13 09:50:22;;;;;;;33.67;17.83;;;;;;;1.20;100.00;102075.91;5003707;28;20404;-74
2024/01/13 09:52:48;;;;;;;31.40;17.23;;;;;;;1.22;100.00;102078.41;5006392;28;20033;-73
2024/01/13 09:55:16;;;;;;;34.40;18.13;;;;;;;1.22;100.00;102069.03;5010157;28;20067;-74
2024/01/13 09:57:42;;;;;;;27.95;15.13;;;;;;;1.26;100.00;102064.63;5027910;28;20022;-73
2024/01/13 10:00:08;;;;;;;35.45;18.25;;;;;;;1.28;100.00;102065.38;5028100;28;20028;-74
2024/01/13 10:02:34;;;;;;;26.02;12.80;;;;;;;1.43;100.00;102063.91;5029813;28;20064;-74
2024/01/13 10:04:59;;;;;;;27.25;13.85;;;;;;;1.38;100.00;102069.22;5029231;28;20034;-74
2024/01/13 10:07:26;;;;;;;92.82;32.47;;;;;;;1.44;100.00;102078.34;5017685;28;21524;-73
2024/01/13 10:09:52;;;;;;;74.13;29.75;;;;;;;1.43;100.00;102074.13;5016724;28;20026;-74
2024/01/13 10:12:18;;;;;;;88.55;38.78;;;;;;;1.42;100.00;102075.03;5025692;28;20435;-74
2024/01/13 10:14:44;;;;;;;50.05;21.52;;;;;;;1.47;100.00;102070.53;5027121;28;20120;-75
2024/01/13 10:17:10;;;;;;;73.72;30.23;;;;;;;1.48;100.00;102061.97;5021939;28;20041;-73
2024/01/13 10:19:41;;;;;;;48.50;22.10;;;;;;;1.43;100.00;102066.44;5012808;28;20109;-74
2024/01/13 10:22:07;;;;;;;32.85;15.68;;;;;;;1.47;100.00;102063.72;5030895;28;20033;-74
2024/01/13 10:24:36;;;;;;;36.03;17.63;;;;;;;1.47;100.00;102060.31;5012650;28;20057;-74
2024/01/13 10:27:04;;;;;;;26.50;13.82;;;;;;;1.46;100.00;102054.38;5023895;28;20033;-74
2024/01/13 10:29:30;;;;;;;32.67;16.30;;;;;;;1.45;100.00;102046.75;5012333;28;20657;-73
2024/01/13 10:31:56;;;;;;;28.10;14.25;;;;;;;1.43;100.00;102049.41;5011637;28;20030;-74
2024/01/13 10:34:22;;;;;;;23.08;11.50;;;;;;;1.41;100.00;102058.84;5005330;28;21828;-73
2024/01/13 10:36:47;;;;;;;20.55;11.75;;;;;;;1.58;100.00;102054.75;5010945;28;20042;-74
2024/01/13 10:39:14;;;;;;;24.77;9.98;;;;;;;1.65;100.00;102048.47;5022236;28;20062;-74
2024/01/13 10:41:44;;;;;;;24.20;11.45;;;;;;;1.72;100.00;102040.44;5023790;28;20034;-74
2024/01/13 10:44:11;;;;;;;18.77;10.43;;;;;;;1.60;100.00;102041.00;5004799;28;20097;-74
2024/01/13 10:46:37;;;;;;;19.92;9.85;;;;;;;1.55;100.00;102030.16;5019575;28;20042;-73
2024/01/13 10:49:13;;;;;;;22.00;11.07;;;;;;;1.68;100.00;102031.25;5000543;28;20076;-74
2024/01/13 10:51:42;;;;;;;22.58;11.02;;;;;;;1.59;100.00;102016.31;4996583;28;20046;-74
2024/01/13 10:54:08;;;;;;;32.20;15.10;;;;;;;1.60;100.00;102029.94;5005285;28;20436;-74
2024/01/13 10:56:38;;;;;;;27.60;13.13;;;;;;;1.66;100.00;102014.34;5006202;28;20038;-74
2024/01/13 10:59:04;;;;;;;24.38;11.05;;;;;;;1.53;100.00;102019.97;5002720;28;20022;-74
2024/01/13 11:01:31;;;;;;;27.80;12.20;;;;;;;1.57;100.00;102002.78;5000299;28;20088;-74
2024/01/13 11:03:58;;;;;;;25.48;11.80;;;;;;;1.65;100.00;101995.59;5003254;28;20072;-74